Create Custom Reports and Graphics: Custom Report

Latest Observation

37 Stations

Daily Data | America/Los_Angeles
as of 1/15/21 11:50 PM PST
Station Date Daily Max Temp (°F) Time of Max Temp Daily Min Temp (°F) Time of Min Temp Daily Rain (In) Monthly Rain (In) Seasonal Rainfall (In) Daily ETo (in) 7 Day ETo (in) Daily Solar Rad (Cal/cm2) Wind Spd (mph) Daily Max Wind (mph) Time of Max Wind Max Wind Dir (°) Dew Pt (°F) Max RH (%) Min RH (%) Hrs 70-85F (hrs) Hrs > 95F (hrs) Powdery Mildew Stress (pts) Hrs <= 32F (hrs) Hrs <= 28F (hrs) GDDs (DL) Seas GDDs (DL) Chilling <=45F (hrs) Chilling <=45F Seas (hrs) Daily Leaf Wet Hrs (hrs) Daily Max CanT (°F) Daily Min CanT (°F) Bat Volt Min Day (V)
Utter - Wilson 1/14/21 62.2 1500 39.7 0659 0.00 0.29 2.52 0.036 0.28 187 2.7 11.8 0020 NNW | 342 47.3 100 68 0.00 0.00 - 0.0 0.0 1.6 - 4.4 765 - - - 12.4
Clarksburg 1/14/21 60.1 1537 37.9 0732 0.00 - 2.69 0.035 0.29 180 2.3 11.1 0002 NNW | 338 45.8 100 67 0.00 0.00 0 0.0 0.0 1.5 4,301 9.2 813 - - - 12.4
Gorter - Wilson 1/14/21 58.4 1504 38.3 0627 0.00 0.29 2.72 0.031 0.28 162 2.3 11.6 0211 N | 4 46.4 100 79 0.00 0.00 - 0.0 0.0 1.2 - 8.1 827 - - - 12.1
Clarksburg-3A2 1/14/21 59.2 1506 37.7 0736 0.00 0.28 2.87 0.029 0.25 149 2.4 10.3 0053 NNW | 329 46.2 100 71 0.00 0.00 - 0.0 0.0 1.4 - 8.7 786 - - - 12.7
Hood 1/14/21 61.0 1637 36.4 0656 0.00 - 2.28 0.026 0.24 139 1.8 8.7 0008 N | 354 45.5 100 69 0.00 0.00 0 0.0 0.0 1.4 4,006 10.7 814 - - - 12.4
Courtland-C3 1/14/21 59.0 1635 37.9 0703 0.00 0.34 2.16 - - - 2.2 8.2 0121 NNW | 332 45.7 100 77 0.00 0.00 - 0.0 0.0 0.8 - 8.4 841 - - - 12.5
Pacific Fruit 1/14/21 60.0 1638 38.4 0535 0.00 0.43 2.35 0.028 0.24 151 1.9 9.4 1305 ENE | 74 46.6 100 75 0.00 0.00 - 0.0 0.0 1.4 - 8.6 740 - - - 12.3
Ryer Island South 1/14/21 62.7 1517 37.7 0736 0.00 0.28 2.33 0.052 0.28 257 1.7 13.2 1310 NE | 39 46.8 100 61 0.00 0.00 - 0.0 0.0 2.7 - 6.2 717 14.8 - - 12.1
Lodi West 1/14/21 62.1 1547 39.0 0646 0.00 0.24 2.04 0.038 0.24 181 1.0 7.2 1505 WNW | 302 46.6 100 61 0.00 0.00 - 0.0 0.0 2.0 - 6.4 770 14.5 - - 12.2
Guard Rd (Lodi WSW) 1/14/21 63.1 1541 37.6 0554 0.00 0.25 2.09 0.044 0.26 215 1.6 10.1 1300 ENE | 60 45.2 100 57 0.00 0.00 - 0.0 0.0 2.2 - 10.0 899 4.8 63.2 36.9 12.3
Sloughhouse 1/14/21 58.7 1453 36.8 2336 0.00 0.32 2.84 0.023 0.44 112 1.2 9.1 1212 SE | 132 45.1 100 76 0.00 0.00 - 0.0 0.0 1.1 - 11.4 901 - - - 12.3
Sheldon 1/14/21 56.3 1551 39.6 0434 0.00 0.32 2.85 0.018 0.26 94 1.9 8.1 0101 WSW | 246 45.2 100 84 0.00 0.00 - 0.0 0.0 0.6 - 11.8 892 18.7 56.8 39.1 12.7
Colony 1 1/14/21 59.8 1600 39.5 0423 0.00 0.30 2.28 0.025 0.28 126 1.8 9.5 1332 E | 99 46.5 100 76 0.00 0.00 - 0.0 0.0 1.4 - 9.6 828 - - - 12.7
Colony 2 1/14/21 58.6 1557 38.5 0501 0.00 0.25 2.17 0.022 0.26 113 2.0 8.1 0921 ESE | 117 45.4 100 77 0.00 0.00 - 0.0 0.0 1.1 - 11.3 875 - - - 12.7
Galt West 1/14/21 55.1 1528 37.5 0620 0.00 - 2.50 0.018 0.24 90 1.3 6.0 1214 ESE | 117 44.2 98 86 0.00 0.00 0 0.0 0.0 0.3 4,108 11.8 833 - - - 12.5
Valley Oak 1/14/21 55.7 1521 37.4 2356 0.00 - 1.93 0.019 - 102 1.1 8.8 1216 ENE | 69 44.3 100 83 0.00 0.00 0 0.0 0.0 0.5 4,012 12.4 894 - - - 11.9
Thornton 1/14/21 57.0 1530 37.8 0622 0.00 0.00 1.74 0.022 0.22 108 0.7 7.1 1340 ENE | 77 43.3 93 85 0.00 0.00 0 0.0 0.0 0.7 4,156 10.5 855 15.5 - - 12.3
Kost Rd 1/14/21 55.8 1612 37.8 0540 0.00 0.30 1.92 0.021 0.23 112 1.3 6.8 1218 E | 80 45.4 100 89 0.00 0.00 - 0.0 0.0 0.6 - 11.9 823 - - - 12.3
DeVries Road-North 1/14/21 59.6 1541 38.4 0544 0.00 0.29 2.16 0.024 0.13 126 1.3 7.2 1227 ESE | 108 45.2 100 76 0.00 0.00 - 0.0 0.0 0.7 - 11.2 817 - - - 12.5
Lodi (LangeTwins) 1/14/21 58.8 1541 39.0 2359 0.00 - 2.31 0.020 0.22 104 0.8 6.4 1140 WSW | 251 45.5 100 81 0.00 0.00 0 0.0 0.0 0.7 - 11.3 - 17.7 - - 12.0
Sierra Loma-L27 1/14/21 61.6 1547 40.8 0345 0.00 0.29 2.26 - - - 2.4 9.8 0826 SE | 142 47.6 100 76 0.00 0.00 - 0.0 0.0 1.8 - 7.7 774 - - - 12.6
Borden Hills 1/14/21 62.7 1612 41.3 0335 0.00 0.29 2.16 0.030 0.27 147 3.0 9.3 1032 S | 180 48.7 100 76 0.00 0.00 - 0.0 0.0 2.1 - 5.0 724 - - - 12.4
5 Wells 1/14/21 58.8 1513 39.4 0408 0.00 - 2.04 0.025 0.27 123 2.3 9.4 1059 SSE | 160 46.2 100 78 0.00 0.00 0 0.0 0.0 1.0 - 11.0 - - - - 12.2
Simmerhorn 1/14/21 58.7 1520 40.2 0347 - - - - - - - - - - 46.8 100 79 0.00 0.00 - 0.0 0.0 1.2 - 11.0 846 - - - 12.3
Gilbeau Ranch 1/14/21 59.1 1513 39.0 0405 0.00 0.31 2.50 0.022 0.24 112 1.6 8.1 1010 SSE | 157 46.2 100 76 0.00 0.00 - 0.0 0.0 1.0 - 10.1 874 - - - 11.9
Galt-East 1/14/21 59.6 1521 39.9 0339 0.01 - 2.03 0.026 0.22 133 1.9 8.6 1115 SE | 139 47.2 100 87 0.00 0.00 0 0.0 0.0 1.3 4,202 9.9 859 - - - 12.4
Lockeford 1/14/21 57.3 1615 39.7 0355 0.00 - 2.64 0.022 - 112 1.8 8.8 0902 SSE | 158 44.2 95 79 0.00 0.00 0 0.0 0.0 0.8 4,099 10.7 899 18.4 60.0 40.1 11.9
Acampo 1/14/21 56.5 1504 38.6 0515 0.00 0.31 2.62 0.023 0.25 116 0.7 6.1 1234 E | 101 44.8 100 78 0.00 0.00 - 0.0 0.0 0.8 - 11.8 869 17.6 - - 11.3
Acampo (Woodbridge) 1/14/21 57.3 1535 40.2 0600 0.00 0.10 2.20 0.021 0.23 108 1.9 8.0 0934 ESE | 120 46.7 100 79 0.00 0.00 - 0.0 0.0 0.8 - 8.3 752 - - - 12.4
Victor - N (Katusha) 1/14/21 59.8 1619 39.2 0521 0.01 - 1.38 - - - 0.9 6.8 0951 S | 184 45.7 100 69 0.00 0.00 0 0.0 0.0 0.7 - 12.0 - - - - 12.5
Teresi-Alpine Rd (East Lodi) 1/14/21 63.0 1602 39.9 0537 0.00 0.10 2.06 0.026 0.25 123 1.7 6.7 0923 ESE | 123 46.2 100 62 0.00 0.00 0 0.0 0.0 1.6 - 10.7 835 - - - 12.7
Live Oak 1/14/21 60.7 1614 39.1 0518 0.00 0.12 2.01 0.031 0.23 147 1.3 7.7 1522 WNW | 284 45.7 100 67 0.00 0.00 - 0.0 0.0 1.6 - 11.2 887 - - - 12.6
Lone Oak-L28 1/14/21 62.5 1614 36.8 2352 0.00 0.09 2.02 - - - 2.5 10.2 0844 SE | 145 44.6 100 69 0.00 0.00 - 0.0 0.0 1.3 - 12.4 1,005 - - - 12.6
Linden 1/14/21 65.2 1623 39.8 0432 0.00 0.08 2.16 - - - 1.4 6.9 1024 SSW | 204 46.4 100 57 0.00 0.00 - 0.0 0.0 1.7 - 9.1 913 18.9 - - 12.7
Collegeville 1/14/21 66.8 1507 40.2 2359 0.00 1.02 1.42 0.016 0.20 36 1.4 7.0 0858 E | 84 46.8 100 48 0.00 0.00 - 0.0 0.0 3.2 - 7.3 854 - - - 12.5
Claussen 1/14/21 67.3 1422 40.3 2327 0.00 0.13 1.95 0.027 0.23 56 2.3 9.4 1335 NNW | 335 48.3 100 56 0.00 0.00 - 0.0 0.0 4.3 - 1.4 691 - - - 12.4
Escalon 1/14/21 67.5 1620 42.3 2352 0.00 0.05 2.08 - - - 1.2 6.8 1523 NW | 320 48.1 100 54 0.00 0.00 - 0.0 0.0 3.5 - 3.8 799 12.4 - - 12.0
Max   67.5 - 42.3 - 0.01 1.02 - 0.052 - 257 3.0 13.2 - - 48.7 100 89 0.00 0.00 - 0.0 0.0 4.3 - 12.4 - 18.9 63.2 40.1 12.7
Avg   - - - - - 0.26 - - - - 1.7 - - - 46.0 - - 0.00 0.00 - 0.0 0.0 1.4 - 9.4 - - - - -
Min   55.1 - 36.4 - 0.00 0.00 - 0.016 - 36 0.7 6.0 - - 43.3 93 48 0.00 0.00 - 0.0 0.0 0.3 - 1.4 - 4.8 56.8 36.9 11.3